Hagerman, New Mexico
Current Conditions -  °F | °C
As of 1:51 AM on Thursday 23 Oct 2014 (Local Time) from KROW Reporting Station
Moderate Fog Moderate Fog  
Wind Chill: 59°   Ceiling: 200
Heat Index: 59°   Visibility: 0.25mi
Dew Point: 58°   Wind: 7mph
Humidity: 96%   Direction: 170°S
Pressure: 30.12"   Gusts: NA
Location:  33.12°N, 104.33°W
Report Text: KROW 230751Z AUTO 17006KT 1/4SM FG VV002 15/14 A3012 RMK AO2 SLP149 T01500144
Loading
Personal Weather Stations






























Interactive Weather Map
Tropical Storm Tracking
New forecast layout! Learn more

10-Day Weather Forecast

Advertisements
Track Severe Weather on mobile